Terminal Aerodrome Forecast
Issued by NWS Charleston, WV

Current Version | Previous Version | Graphics & Text | Print | Product List | Glossary On
Versions: 1 2 3 4 5 6 7 8 9 10 11 12 13 14 15 16 17 18 19 20 21 22 23 24
764
FTUS41 KRLX 241459 AAA
TAFEKN
TAF AMD
KEKN 241459Z 2415/2512 12008KT 6SM -RA OVC050
      TEMPO 2415/2419 4SM RA OVC025
     FM242100 11009KT 6SM RA OVC070
     FM250100 11008KT P6SM OVC060
     FM250900 12006KT P6SM BKN035=

USA.gov is the U.S. government's official web portal to all federal, state and local government web resources and services.